Weather History for Stafford, VA

Change the Weather History Date:

Saturday, September 7, 2013

  Actual Average (KNYG) Record (KNYG)
Temperature  
Mean Temperature 64 °F -  
Max Temperature 78 °F 78 °F 96 °F (1998)
Min Temperature 50 °F 62 °F 51 °F (1996)
Degree Days  
Heating Degree Days 1    
Growing Degree Days 14 (Base 50)    
Moisture  
Dew Point 59 °F    
Average Humidity 85    
Maximum Humidity 100    
Minimum Humidity 59    
Precipitation  
Precipitation 0.00 in - - ()
Sea Level Pressure  
Sea Level Pressure 30.10 in    
Wind  
Wind Speed 2 mph (SSW)    
Max Wind Speed 9 mph    
Max Gust Speed -    
Visibility 10 miles    
Events      
Averages and records for this station are not official NWS values.
T = Trace of Precipitation, MM = Missing Value Source: NWS Daily Summary

Daily Weather History Graph

Daily Weather History Graph

Search for Another Location

Airport:

Trip Planner

Search our weather history database for the weather conditions in past years. The results will help you decide how hot, cold, wet, or windy it might be!

Date:

Astronomy

Sep. 07, 2013 Rise Set
Actual Time 6:44 AM EDT 7:30 PM EDT
Civil Twilight 6:17 AM EDT 7:56 PM EDT
Nautical Twilight 5:46 AM EDT 8:28 PM EDT
Astronomical Twilight 5:13 AM EDT 9:01 PM EDT
Moon 8:54 AM EDT (9/7) 8:30 PM EDT (9/7)
Length of Visible Light 13h 39m
Length of Day
12h 45m
Waxing Crescent, 5% of the Moon is Illuminated
Sep 7
Waxing Crescent
Sep 12
First Quarter
Sep 19
Full
Sep 26
Last Quarter
Oct 4
New

Hourly Weather History & Observations

Time (EDT) Temp. Dew Point Humidity Pressure Visibility Wind Dir Wind Speed Gust Speed Precip Events Conditions
12:15 AM 54.1 °F 54.1 °F 100% 30.19 in 10.0 mi NW 3.5 mph - N/A   Clear
12:35 AM 55.4 °F 55.2 °F 99% 30.19 in 10.0 mi Calm Calm - N/A   Clear
12:55 AM 54.3 °F 54.3 °F 100% 30.19 in 10.0 mi Calm Calm - N/A   Clear
1:15 AM 53.4 °F 53.4 °F 100% 30.19 in 10.0 mi Calm Calm - N/A   Clear
1:35 AM 53.4 °F 53.4 °F 100% 30.19 in 10.0 mi Calm Calm - N/A   Clear
1:55 AM 52.9 °F 52.9 °F 100% 30.18 in 10.0 mi Calm Calm - N/A   Clear
2:15 AM 52.3 °F 52.3 °F 100% 30.18 in 7.0 mi Calm Calm - N/A   Clear
2:35 AM 52.3 °F 52.3 °F 100% 30.18 in 10.0 mi Calm Calm - N/A   Clear
2:55 AM 52.2 °F 52.2 °F 100% 30.18 in 10.0 mi Calm Calm - N/A   Clear
3:15 AM 52.0 °F 52.0 °F 100% 30.18 in 10.0 mi Calm Calm - N/A   Clear
3:35 AM 50.7 °F 50.7 °F 100% 30.17 in 7.0 mi Calm Calm - N/A   Clear
3:55 AM 51.3 °F 51.3 °F 100% 30.17 in 10.0 mi Calm Calm - N/A   Clear
4:15 AM 52.0 °F 52.0 °F 100% 30.17 in 10.0 mi Calm Calm - N/A   Clear
4:35 AM 51.3 °F 51.3 °F 100% 30.17 in 10.0 mi Calm Calm - N/A   Clear
4:55 AM 51.8 °F 51.8 °F 100% 30.17 in 10.0 mi Calm Calm - N/A   Clear
5:15 AM 52.3 °F 52.3 °F 100% 30.17 in 10.0 mi Calm Calm - N/A   Clear
5:35 AM 51.6 °F 51.6 °F 100% 30.17 in 10.0 mi Calm Calm - N/A   Clear
5:55 AM 52.3 °F 52.3 °F 100% 30.17 in 10.0 mi Calm Calm - N/A   Clear
6:15 AM 52.2 °F 52.2 °F 100% 30.17 in 10.0 mi Calm Calm - N/A   Clear
6:35 AM 52.3 °F 52.3 °F 100% 30.17 in 10.0 mi Calm Calm - N/A   Clear
6:55 AM 52.3 °F 52.3 °F 100% 30.17 in 10.0 mi Calm Calm - N/A   Clear
7:15 AM 52.9 °F 52.9 °F 100% 30.17 in 10.0 mi Calm Calm - N/A   Clear
7:35 AM 54.0 °F 54.0 °F 100% 30.17 in 10.0 mi Calm Calm - N/A   Clear
7:55 AM 54.9 °F 54.9 °F 100% 30.17 in 10.0 mi Calm Calm - N/A   Clear
8:15 AM 56.8 °F 56.8 °F 100% 30.16 in 10.0 mi Calm Calm - N/A   Clear
8:35 AM 57.9 °F 57.9 °F 100% 30.16 in 10.0 mi Calm Calm - N/A   Clear
8:55 AM 60.3 °F 59.5 °F 97% 30.16 in 10.0 mi Calm Calm - N/A   Clear
9:15 AM 63.0 °F 61.0 °F 93% 30.16 in 10.0 mi Calm Calm - N/A   Clear
9:35 AM 66.2 °F 62.2 °F 87% 30.16 in 10.0 mi Calm Calm - N/A   Clear
9:55 AM 69.3 °F 60.4 °F 73% 30.16 in 10.0 mi SSW 6.9 mph - N/A   Clear
10:15 AM 70.5 °F 60.3 °F 70% 30.16 in 10.0 mi SSW 5.8 mph - N/A   Clear
10:35 AM 71.6 °F 59.9 °F 66% 30.16 in 10.0 mi SW 8.1 mph - N/A   Clear
10:55 AM 72.7 °F 60.8 °F 66% 30.15 in 10.0 mi SSW 6.9 mph - N/A   Clear
11:15 AM 73.4 °F 61.0 °F 65% 30.15 in 10.0 mi SSW 9.2 mph - N/A   Clear
11:35 AM 74.7 °F 61.9 °F 64% 30.14 in 10.0 mi SSW 3.5 mph - N/A   Clear
11:55 AM 75.2 °F 61.3 °F 62% 30.13 in 10.0 mi SSW 6.9 mph - N/A   Clear
12:15 PM 75.4 °F 61.2 °F 61% 30.13 in 10.0 mi West 5.8 mph - N/A   Clear
12:35 PM 76.1 °F 62.1 °F 62% 30.12 in 10.0 mi SSW 6.9 mph - N/A   Scattered Clouds
12:55 PM 77.0 °F 61.7 °F 59% 30.11 in 10.0 mi SSW 6.9 mph - N/A   Scattered Clouds
1:15 PM 77.0 °F 61.5 °F 59% 30.10 in 10.0 mi SSW 4.6 mph - N/A   Scattered Clouds
1:35 PM 76.5 °F 61.9 °F 61% 30.10 in 10.0 mi SW 3.5 mph - N/A   Mostly Cloudy
1:55 PM 75.9 °F 62.2 °F 62% 30.09 in 10.0 mi SW 4.6 mph - N/A   Overcast
2:15 PM 76.1 °F 63.0 °F 64% 30.08 in 10.0 mi SSW 6.9 mph - N/A   Overcast
2:35 PM 76.6 °F 63.1 °F 63% 30.07 in 10.0 mi South 6.9 mph - N/A   Overcast
2:55 PM 78.1 °F 63.0 °F 60% 30.06 in 10.0 mi South 9.2 mph - N/A   Overcast
3:15 PM 77.9 °F 63.0 °F 60% 30.06 in 10.0 mi SSW 3.5 mph - N/A   Mostly Cloudy
3:35 PM 77.0 °F 64.4 °F 65% 30.05 in 10.0 mi South 6.9 mph - N/A   Mostly Cloudy
3:55 PM 77.2 °F 63.3 °F 62% 30.05 in 10.0 mi South 4.6 mph - N/A   Mostly Cloudy
4:15 PM 77.5 °F 63.1 °F 61% 30.04 in 10.0 mi SSW 3.5 mph - N/A   Scattered Clouds
4:35 PM 77.0 °F 63.7 °F 63% 30.03 in 10.0 mi Calm Calm - N/A   Scattered Clouds
4:55 PM 77.7 °F 63.7 °F 62% 30.03 in 10.0 mi Calm Calm - N/A   Scattered Clouds
5:15 PM 77.0 °F 63.7 °F 63% 30.02 in 10.0 mi SSW 5.8 mph - N/A   Scattered Clouds
5:35 PM 77.0 °F 64.4 °F 65% 30.02 in 10.0 mi Calm Calm - N/A   Clear
5:55 PM 77.9 °F 64.4 °F 63% 30.02 in 10.0 mi South 5.8 mph - N/A   Clear
6:15 PM 77.0 °F 63.7 °F 63% 30.02 in 10.0 mi SSW 4.6 mph - N/A   Clear
6:35 PM 76.6 °F 64.9 °F 67% 30.01 in 10.0 mi South 3.5 mph - N/A   Clear
6:55 PM 75.2 °F 65.5 °F 72% 30.01 in 10.0 mi Calm Calm - N/A   Clear
7:15 PM 73.4 °F 64.6 °F 74% 30.00 in 10.0 mi Calm Calm - N/A   Clear
7:35 PM 71.1 °F 66.4 °F 85% 30.01 in 10.0 mi Calm Calm - N/A   Clear
7:55 PM 67.8 °F 67.8 °F 100% 30.01 in 10.0 mi Calm Calm - N/A   Clear
8:15 PM 66.4 °F 66.4 °F 100% 30.01 in 10.0 mi Calm Calm - N/A   Clear
8:35 PM 66.4 °F 66.4 °F 100% 30.01 in 10.0 mi Calm Calm - N/A   Clear
8:55 PM 65.8 °F 65.8 °F 100% 30.01 in 10.0 mi Calm Calm - N/A   Clear
9:15 PM 64.6 °F 64.6 °F 100% 30.01 in 7.0 mi Calm Calm - N/A   Clear
9:35 PM 64.4 °F 64.4 °F 100% 30.01 in 7.0 mi Calm Calm - N/A   Clear
9:55 PM 64.4 °F 64.4 °F 100% 30.01 in 7.0 mi Calm Calm - N/A   Clear
10:15 PM 63.5 °F 63.5 °F 100% 30.01 in 5.0 mi Calm Calm - N/A   Clear
10:35 PM 63.0 °F 63.0 °F 100% 30.00 in 7.0 mi Calm Calm - N/A   Clear
10:55 PM 63.0 °F 63.0 °F 100% 30.00 in 7.0 mi Calm Calm - N/A   Clear
11:15 PM 63.0 °F 63.0 °F 100% 30.00 in 7.0 mi Calm Calm - N/A   Clear
11:35 PM 61.5 °F 61.5 °F 100% 30.00 in 7.0 mi Calm Calm - N/A   Clear
11:55 PM 61.7 °F 61.7 °F 100% 29.99 in 7.0 mi Calm Calm - N/A   Clear